createdAt,value
2023-05-07T00:01:51.400Z,1.27
2023-05-07T00:04:27.399Z,1.55
2023-05-07T00:07:00.907Z,1.07
2023-05-07T00:09:40.323Z,1.17
2023-05-07T00:12:17.248Z,1.00
2023-05-07T00:14:48.033Z,1.27
2023-05-07T00:17:26.827Z,1.33
2023-05-07T00:20:03.500Z,0.67
2023-05-07T00:22:37.570Z,1.27
2023-05-07T00:25:11.731Z,1.00
2023-05-07T00:27:41.791Z,0.93
2023-05-07T00:30:48.109Z,1.00
2023-05-07T00:33:24.262Z,0.73
2023-05-07T00:38:40.168Z,0.80
2023-05-07T00:41:13.337Z,0.70
2023-05-07T00:43:47.665Z,0.70
2023-05-07T00:46:24.507Z,1.60
2023-05-07T00:48:58.334Z,1.13
2023-05-07T00:51:32.668Z,1.10
2023-05-07T00:54:14.547Z,1.20
2023-05-07T00:56:51.337Z,0.73
2023-05-07T00:59:24.828Z,1.00
2023-05-07T01:02:01.499Z,1.10
2023-05-07T01:04:32.917Z,0.90
2023-05-07T01:07:11.144Z,0.95
2023-05-07T01:09:41.933Z,1.10
2023-05-07T01:12:22.377Z,0.70
2023-05-07T01:14:53.115Z,0.70
2023-05-07T01:17:33.384Z,1.00
2023-05-07T01:20:15.634Z,1.20
2023-05-07T01:22:52.364Z,0.60
2023-05-07T01:25:21.506Z,1.30
2023-05-07T01:28:02.663Z,0.80
2023-05-07T01:30:38.378Z,1.05
2023-05-07T01:33:34.830Z,0.90
2023-05-07T01:36:08.726Z,0.90
2023-05-07T01:38:39.945Z,0.70
2023-05-07T01:41:20.595Z,1.13
2023-05-07T01:43:50.461Z,1.00
2023-05-07T01:49:17.552Z,0.90
2023-05-07T01:52:02.405Z,1.00
2023-05-07T01:54:45.096Z,0.97
2023-05-07T01:59:50.172Z,1.20
2023-05-07T02:02:24.230Z,1.00
2023-05-07T02:04:59.746Z,0.70
2023-05-07T02:07:31.024Z,1.00
2023-05-07T02:10:08.281Z,0.77
2023-05-07T02:12:47.519Z,1.27
2023-05-07T02:15:24.216Z,1.20
2023-05-07T02:18:24.792Z,1.10
2023-05-07T02:20:56.625Z,0.90
2023-05-07T02:23:30.704Z,0.87
2023-05-07T02:26:01.796Z,0.63
2023-05-07T02:28:33.237Z,0.90
2023-05-07T02:31:07.997Z,1.20
2023-05-07T02:33:39.687Z,0.83
2023-05-07T02:36:13.143Z,1.00
2023-05-07T02:38:53.464Z,0.97
2023-05-07T02:41:24.821Z,0.73
2023-05-07T02:44:04.114Z,0.73
2023-05-07T02:46:47.737Z,1.10
2023-05-07T02:49:19.486Z,0.77
2023-05-07T02:54:26.590Z,1.00
2023-05-07T02:56:58.846Z,0.70
2023-05-07T02:59:29.692Z,1.00
2023-05-07T03:02:15.482Z,0.85
2023-05-07T03:04:45.833Z,0.87
2023-05-07T03:07:17.381Z,0.70
2023-05-07T03:09:47.673Z,0.90
2023-05-07T03:12:21.197Z,0.87
2023-05-07T03:14:51.806Z,0.57
2023-05-07T03:17:25.879Z,0.70
2023-05-07T03:19:59.222Z,1.07
2023-05-07T03:22:33.850Z,1.10
2023-05-07T03:25:11.557Z,1.50
2023-05-07T03:27:46.244Z,1.10
2023-05-07T03:30:15.393Z,0.90
2023-05-07T03:32:46.170Z,1.27
2023-05-07T03:35:22.305Z,1.30
2023-05-07T03:37:55.693Z,1.40
2023-05-07T03:40:26.977Z,0.90
2023-05-07T03:45:37.043Z,0.67
2023-05-07T03:48:20.552Z,0.87
2023-05-07T03:50:51.827Z,0.67
2023-05-07T03:53:25.506Z,1.05
2023-05-07T03:55:56.038Z,0.80
2023-05-07T03:58:41.577Z,0.63
2023-05-07T04:04:05.423Z,0.87
2023-05-07T04:06:35.641Z,0.93
2023-05-07T04:09:11.320Z,0.60
2023-05-07T04:11:54.835Z,0.80
2023-05-07T04:14:29.055Z,0.90
2023-05-07T04:17:05.304Z,0.90
2023-05-07T04:19:48.600Z,1.30
2023-05-07T04:22:23.649Z,1.30
2023-05-07T04:25:02.673Z,1.30
2023-05-07T04:27:34.153Z,1.17
2023-05-07T04:30:10.055Z,0.95
2023-05-07T04:32:47.248Z,1.20
2023-05-07T04:35:26.548Z,1.00
2023-05-07T04:38:14.255Z,1.00
2023-05-07T04:40:45.746Z,1.40
2023-05-07T04:43:25.710Z,1.10
2023-05-07T04:45:57.338Z,1.30
2023-05-07T04:48:31.434Z,1.33
2023-05-07T04:51:11.232Z,1.20
2023-05-07T04:53:46.688Z,1.87
2023-05-07T04:56:17.466Z,1.20
2023-05-07T04:58:50.957Z,1.40
2023-05-07T05:01:22.806Z,0.90
2023-05-07T05:04:08.980Z,1.03
2023-05-07T05:06:39.816Z,1.20
2023-05-07T05:09:12.542Z,9.00
2023-05-07T05:11:44.014Z,6.83
2023-05-07T05:14:16.329Z,3.10
2023-05-07T05:16:46.677Z,3.03
2023-05-07T05:19:22.292Z,2.37
2023-05-07T05:21:53.998Z,1.73
2023-05-07T05:24:27.514Z,1.53
2023-05-07T05:26:59.496Z,1.90
2023-05-07T05:29:33.688Z,1.47
2023-05-07T05:32:05.300Z,2.10
2023-05-07T05:34:44.338Z,1.77
2023-05-07T05:37:16.174Z,1.43
2023-05-07T05:39:50.255Z,2.20
2023-05-07T05:42:24.199Z,2.47
2023-05-07T05:44:55.472Z,2.00
2023-05-07T05:50:24.923Z,1.70
2023-05-07T05:53:00.710Z,1.83
2023-05-07T05:55:39.320Z,1.60
2023-05-07T05:58:13.799Z,1.30
2023-05-07T06:00:51.506Z,1.27
2023-05-07T06:03:36.946Z,1.80
2023-05-07T06:06:12.933Z,1.43
2023-05-07T06:08:52.468Z,1.77
2023-05-07T06:11:36.545Z,2.07
2023-05-07T06:14:07.435Z,1.00
2023-05-07T06:19:13.652Z,1.40
2023-05-07T06:21:47.405Z,1.23
2023-05-07T06:24:18.970Z,1.23
2023-05-07T06:26:48.927Z,1.42
2023-05-07T06:29:22.841Z,1.20
2023-05-07T06:31:53.799Z,1.40
2023-05-07T06:34:30.535Z,1.27
2023-05-07T06:37:01.910Z,1.20
2023-05-07T06:39:55.114Z,1.73
2023-05-07T06:42:25.087Z,0.85
2023-05-07T06:45:01.297Z,0.90
2023-05-07T06:47:42.717Z,1.00
2023-05-07T06:50:24.769Z,1.40
2023-05-07T06:53:03.047Z,1.13
2023-05-07T06:55:36.404Z,1.03
2023-05-07T06:58:11.457Z,1.07
2023-05-07T07:00:45.066Z,0.90
2023-05-07T07:03:23.314Z,0.97
2023-05-07T07:06:03.326Z,0.90
2023-05-07T07:08:41.919Z,1.47
2023-05-07T07:11:17.638Z,1.10
2023-05-07T07:13:49.147Z,1.00
2023-05-07T07:16:19.335Z,0.90
2023-05-07T07:18:50.886Z,1.40
2023-05-07T07:21:22.259Z,0.90
2023-05-07T07:23:54.094Z,1.02
2023-05-07T07:26:34.050Z,0.90
2023-05-07T07:29:07.800Z,1.40
2023-05-07T07:31:39.412Z,0.80
2023-05-07T07:36:46.163Z,0.93
2023-05-07T07:39:32.412Z,1.30
2023-05-07T07:42:06.597Z,0.90
2023-05-07T07:44:50.753Z,0.90
2023-05-07T07:47:28.489Z,1.03
2023-05-07T07:49:59.324Z,1.07
2023-05-07T07:52:35.467Z,1.27
2023-05-07T07:55:16.738Z,1.17
2023-05-07T07:57:51.625Z,1.47
2023-05-07T08:00:31.898Z,1.13
2023-05-07T08:03:04.376Z,1.10
2023-05-07T08:05:47.271Z,1.10
2023-05-07T08:11:03.194Z,0.68
2023-05-07T08:13:40.156Z,0.77
2023-05-07T08:16:14.659Z,0.80
2023-05-07T08:18:46.313Z,1.08
2023-05-07T08:21:17.701Z,1.05
2023-05-07T08:23:48.762Z,1.10
2023-05-07T08:26:19.641Z,1.05
2023-05-07T08:28:54.619Z,0.90
2023-05-07T08:31:22.779Z,1.27
2023-05-07T08:33:57.635Z,0.80
2023-05-07T08:36:35.748Z,0.80
2023-05-07T08:39:06.847Z,0.75
2023-05-07T08:41:35.297Z,0.80
2023-05-07T08:44:16.467Z,0.82
2023-05-07T08:46:54.117Z,0.60
2023-05-07T08:49:28.295Z,1.17
2023-05-07T08:52:02.589Z,1.00
2023-05-07T08:54:38.507Z,1.05
2023-05-07T08:57:14.409Z,1.20
2023-05-07T08:59:45.157Z,0.88
2023-05-07T09:02:19.951Z,0.57
2023-05-07T09:04:56.271Z,0.95
2023-05-07T09:07:27.321Z,0.80
2023-05-07T09:10:06.898Z,0.93
2023-05-07T09:12:42.576Z,0.68
2023-05-07T09:15:14.559Z,0.65
2023-05-07T09:17:45.986Z,0.90
2023-05-07T09:20:30.414Z,0.90
2023-05-07T09:23:10.138Z,0.85
2023-05-07T09:25:44.919Z,0.82
2023-05-07T09:28:31.258Z,1.00
2023-05-07T09:31:02.966Z,0.90
2023-05-07T09:33:34.203Z,0.60
2023-05-07T09:36:12.286Z,1.00
2023-05-07T09:38:47.997Z,0.60
2023-05-07T09:41:27.627Z,0.82
2023-05-07T09:44:09.943Z,0.98
2023-05-07T09:46:49.045Z,0.98
2023-05-07T09:49:28.260Z,1.13
2023-05-07T09:52:11.976Z,1.48
2023-05-07T09:54:50.192Z,1.10
2023-05-07T09:57:23.745Z,1.05
2023-05-07T10:00:12.030Z,0.93
2023-05-07T10:03:04.119Z,0.90
2023-05-07T10:05:51.521Z,0.90
2023-05-07T10:08:26.084Z,0.90
2023-05-07T10:11:01.556Z,1.02
2023-05-07T10:16:24.762Z,0.60
2023-05-07T10:19:10.430Z,1.30
2023-05-07T10:22:03.634Z,1.20
2023-05-07T10:24:38.170Z,0.82
2023-05-07T10:27:19.489Z,0.70
2023-05-07T10:30:38.417Z,0.80
2023-05-07T10:33:18.365Z,0.70
2023-05-07T10:36:11.227Z,1.58
2023-05-07T10:38:46.469Z,1.20
2023-05-07T10:41:31.619Z,0.50
2023-05-07T10:44:03.131Z,0.85
2023-05-07T10:46:36.754Z,0.63
2023-05-07T10:49:25.540Z,0.60
2023-05-07T10:52:20.053Z,2.03
2023-05-07T10:55:28.453Z,0.73
2023-05-07T10:58:46.392Z,0.70
2023-05-07T11:01:56.435Z,0.63
2023-05-07T11:05:37.305Z,0.55
2023-05-07T11:08:31.039Z,0.85
2023-05-07T11:11:12.817Z,0.90
2023-05-07T11:14:06.531Z,0.60
2023-05-07T11:16:53.118Z,0.60
2023-05-07T11:20:07.459Z,0.80
2023-05-07T11:23:03.307Z,0.50
2023-05-07T11:25:43.802Z,0.40
2023-05-07T11:28:23.648Z,0.68
2023-05-07T11:31:05.750Z,0.82
2023-05-07T11:36:15.868Z,1.00
2023-05-07T11:41:41.419Z,0.50
2023-05-07T11:44:16.142Z,0.68
2023-05-07T11:46:50.928Z,1.08
2023-05-07T11:49:30.883Z,0.73
2023-05-07T11:52:11.258Z,0.70
2023-05-07T11:54:47.594Z,0.50
2023-05-07T11:57:19.471Z,0.82
2023-05-07T11:59:50.830Z,0.68
2023-05-07T12:04:55.055Z,0.90
2023-05-07T12:07:23.806Z,0.73
2023-05-07T12:09:54.288Z,0.70
2023-05-07T12:12:25.812Z,0.60
2023-05-07T12:15:05.028Z,0.65
2023-05-07T12:17:35.907Z,0.60
2023-05-07T12:20:20.276Z,0.47
2023-05-07T12:22:53.091Z,0.60
2023-05-07T12:25:27.597Z,0.35
2023-05-07T12:27:56.468Z,0.70
2023-05-07T12:30:28.103Z,0.60
2023-05-07T12:32:58.706Z,0.50
2023-05-07T12:35:41.243Z,0.63
2023-05-07T12:41:07.613Z,0.52
2023-05-07T12:43:50.052Z,0.60
2023-05-07T12:46:23.694Z,0.68
2023-05-07T12:48:54.049Z,0.77
2023-05-07T12:51:26.778Z,0.73
2023-05-07T12:54:08.257Z,0.93
2023-05-07T12:56:38.627Z,1.00
2023-05-07T12:59:12.654Z,0.60
2023-05-07T13:01:50.687Z,0.70
2023-05-07T13:04:30.759Z,0.95
2023-05-07T13:07:03.352Z,0.93
2023-05-07T13:09:33.550Z,0.73
2023-05-07T13:12:13.102Z,0.82
2023-05-07T13:17:27.294Z,1.10
2023-05-07T13:19:59.661Z,0.93
2023-05-07T13:22:31.811Z,0.80
2023-05-07T13:27:40.855Z,0.68
2023-05-07T13:32:54.171Z,0.75
2023-05-07T13:35:31.754Z,0.95
2023-05-07T13:38:06.289Z,1.10
2023-05-07T13:40:38.664Z,0.75
2023-05-07T13:43:12.772Z,1.27
2023-05-07T13:45:46.106Z,0.90
2023-05-07T13:48:20.220Z,0.73
2023-05-07T13:53:42.753Z,0.98
2023-05-07T13:56:13.060Z,0.70
2023-05-07T13:58:59.468Z,0.85
2023-05-07T14:01:36.966Z,0.70
2023-05-07T14:04:14.902Z,0.60
2023-05-07T14:06:45.686Z,0.80
2023-05-07T14:09:19.436Z,0.80
2023-05-07T14:12:00.530Z,0.70
2023-05-07T14:14:48.785Z,0.80
2023-05-07T14:17:19.407Z,0.68
2023-05-07T14:19:56.466Z,0.47
2023-05-07T14:22:35.046Z,0.82
2023-05-07T14:25:10.024Z,0.80
2023-05-07T14:27:52.356Z,0.90
2023-05-07T14:30:23.577Z,0.90
2023-05-07T14:32:58.805Z,0.65
2023-05-07T14:35:32.721Z,1.10
2023-05-07T14:40:46.199Z,0.93
2023-05-07T14:43:18.390Z,1.00
2023-05-07T14:45:55.865Z,0.90
2023-05-07T14:48:28.164Z,0.70
2023-05-07T14:51:02.365Z,0.80
2023-05-07T14:53:34.317Z,0.80
2023-05-07T14:56:16.194Z,0.90
2023-05-07T14:58:57.480Z,0.90
2023-05-07T15:01:27.783Z,0.77
2023-05-07T15:04:04.761Z,1.40
2023-05-07T15:06:36.279Z,0.77
2023-05-07T15:09:09.145Z,0.82
2023-05-07T15:11:41.031Z,1.23
2023-05-07T15:14:11.443Z,0.73
2023-05-07T15:16:50.495Z,1.17
2023-05-07T15:19:24.361Z,1.25
2023-05-07T15:22:07.689Z,0.90
2023-05-07T15:24:37.542Z,1.15
2023-05-07T15:27:11.947Z,1.00
2023-05-07T15:29:46.633Z,1.08
2023-05-07T15:32:23.737Z,1.00
2023-05-07T15:34:54.670Z,0.80
2023-05-07T15:40:18.055Z,1.10
2023-05-07T15:43:01.507Z,0.70
2023-05-07T15:45:38.744Z,0.80
2023-05-07T15:48:09.836Z,0.90
2023-05-07T15:50:40.881Z,1.02
2023-05-07T15:53:17.080Z,0.80
2023-05-07T15:55:55.055Z,1.05
2023-05-07T15:58:38.982Z,0.75
2023-05-07T16:01:20.238Z,0.80
2023-05-07T16:03:54.626Z,0.70
2023-05-07T16:06:25.833Z,0.60
2023-05-07T16:08:54.647Z,0.75
2023-05-07T16:14:11.052Z,1.02
2023-05-07T16:16:48.080Z,1.17
2023-05-07T16:19:20.230Z,1.13
2023-05-07T16:21:52.504Z,0.82
2023-05-07T16:24:30.643Z,0.70
2023-05-07T16:27:04.551Z,0.85
2023-05-07T16:29:37.198Z,0.90
2023-05-07T16:32:17.774Z,0.93
2023-05-07T16:34:51.755Z,0.90
2023-05-07T16:37:32.576Z,0.63
2023-05-07T16:40:10.458Z,0.90
2023-05-07T16:45:41.534Z,0.85
2023-05-07T16:48:21.219Z,0.80
2023-05-07T16:51:02.038Z,1.20
2023-05-07T16:53:32.518Z,1.15
2023-05-07T16:56:10.272Z,1.20
2023-05-07T16:58:41.209Z,1.08
2023-05-07T17:01:24.469Z,0.80
2023-05-07T17:04:04.002Z,1.27
2023-05-07T17:06:37.037Z,1.30
2023-05-07T17:09:11.963Z,0.77
2023-05-07T17:11:57.651Z,1.30
2023-05-07T17:14:33.939Z,0.70
2023-05-07T17:17:04.774Z,0.70
2023-05-07T17:19:47.517Z,1.27
2023-05-07T17:22:15.212Z,0.95
2023-05-07T17:24:42.871Z,0.75
2023-05-07T17:27:10.574Z,1.00
2023-05-07T17:29:41.947Z,0.82
2023-05-07T17:32:19.374Z,1.15
2023-05-07T17:34:56.146Z,1.17
2023-05-07T17:37:26.825Z,1.05
2023-05-07T17:39:58.218Z,1.08
2023-05-07T17:42:29.939Z,1.25
2023-05-07T17:45:16.258Z,1.08
2023-05-07T17:47:46.714Z,1.80
2023-05-07T17:50:20.724Z,1.00
2023-05-07T17:52:56.603Z,0.52
2023-05-07T17:55:35.766Z,1.20
2023-05-07T17:58:09.818Z,1.48
2023-05-07T18:00:45.971Z,1.20
2023-05-07T18:03:19.329Z,1.42
2023-05-07T18:05:53.612Z,1.67
2023-05-07T18:08:26.967Z,1.50
2023-05-07T18:10:57.961Z,1.30
2023-05-07T18:13:28.655Z,1.20
2023-05-07T18:15:59.664Z,1.40
2023-05-07T18:18:33.454Z,1.27
2023-05-07T18:21:21.128Z,1.13
2023-05-07T18:23:54.451Z,1.50
2023-05-07T18:26:25.229Z,1.23
2023-05-07T18:28:54.392Z,1.15
2023-05-07T18:34:07.533Z,0.93
2023-05-07T18:36:36.654Z,1.13
2023-05-07T18:39:07.531Z,1.40
2023-05-07T18:41:36.516Z,1.50
2023-05-07T18:44:10.499Z,1.60
2023-05-07T18:46:44.234Z,1.60
2023-05-07T18:49:21.549Z,2.00
2023-05-07T18:51:53.835Z,1.70
2023-05-07T18:54:27.749Z,1.50
2023-05-07T18:57:00.906Z,1.30
2023-05-07T18:59:35.048Z,0.95
2023-05-07T19:02:05.595Z,1.10
2023-05-07T19:04:39.379Z,0.93
2023-05-07T19:07:07.784Z,1.33
2023-05-07T19:09:38.759Z,0.90
2023-05-07T19:12:15.995Z,0.80
2023-05-07T19:17:35.660Z,0.90
2023-05-07T19:20:12.077Z,1.00
2023-05-07T19:22:42.344Z,1.33
2023-05-07T19:25:15.682Z,1.10
2023-05-07T19:27:48.187Z,1.05
2023-05-07T19:30:18.931Z,0.88
2023-05-07T19:32:59.617Z,0.90
2023-05-07T19:35:29.717Z,1.77
2023-05-07T19:38:14.045Z,0.70
2023-05-07T19:40:42.950Z,1.13
2023-05-07T19:43:16.874Z,0.82
2023-05-07T19:45:51.679Z,0.90
2023-05-07T19:48:30.244Z,0.90
2023-05-07T19:51:09.585Z,0.77
2023-05-07T19:53:40.696Z,1.00
2023-05-07T19:58:45.684Z,0.52
2023-05-07T20:01:19.393Z,0.80
2023-05-07T20:03:49.810Z,0.88
2023-05-07T20:06:20.917Z,0.75
2023-05-07T20:08:48.827Z,0.88
2023-05-07T20:11:16.733Z,0.57
2023-05-07T20:13:44.481Z,1.73
2023-05-07T20:16:17.893Z,0.68
2023-05-07T20:18:48.254Z,0.65
2023-05-07T20:21:20.335Z,0.45
2023-05-07T20:24:00.993Z,0.60
2023-05-07T20:26:37.483Z,0.50
2023-05-07T20:29:07.690Z,0.40
2023-05-07T20:31:38.935Z,0.52
2023-05-07T20:34:07.574Z,0.50
2023-05-07T20:36:42.078Z,0.60
2023-05-07T20:39:18.836Z,0.90
2023-05-07T20:41:55.664Z,0.50
2023-05-07T20:44:38.236Z,0.52
2023-05-07T20:47:18.186Z,0.40
2023-05-07T20:49:56.071Z,0.50
2023-05-07T20:52:31.521Z,0.57
2023-05-07T20:55:10.424Z,0.70
2023-05-07T20:57:41.558Z,0.85
2023-05-07T21:00:14.934Z,0.90
2023-05-07T21:03:05.222Z,0.52
2023-05-07T21:05:42.008Z,0.88
2023-05-07T21:08:20.890Z,1.40
2023-05-07T21:10:54.329Z,0.82
2023-05-07T21:16:23.937Z,1.10
2023-05-07T21:18:56.529Z,1.23
2023-05-07T21:21:31.566Z,1.40
2023-05-07T21:24:02.075Z,1.13
2023-05-07T21:26:33.113Z,0.87
2023-05-07T21:29:17.916Z,1.00
2023-05-07T21:31:52.150Z,1.40
2023-05-07T21:34:20.915Z,1.07
2023-05-07T21:36:55.597Z,1.10
2023-05-07T21:39:25.250Z,1.00
2023-05-07T21:41:56.847Z,1.07
2023-05-07T21:47:00.217Z,1.20
2023-05-07T21:49:35.188Z,0.90
2023-05-07T21:52:03.584Z,0.90
2023-05-07T21:54:41.599Z,1.23
2023-05-07T21:57:21.429Z,1.40
2023-05-07T21:59:53.137Z,1.30
2023-05-07T22:05:20.116Z,0.70
2023-05-07T22:07:50.473Z,1.27
2023-05-07T22:10:30.515Z,0.80
2023-05-07T22:13:00.897Z,0.90
2023-05-07T22:15:35.267Z,1.30
2023-05-07T22:18:14.887Z,0.77
2023-05-07T22:20:46.227Z,1.00
2023-05-07T22:23:17.212Z,1.02
2023-05-07T22:25:48.604Z,1.00
2023-05-07T22:28:22.463Z,0.73
2023-05-07T22:30:59.653Z,1.00
2023-05-07T22:33:37.265Z,0.63
2023-05-07T22:36:11.150Z,0.53
2023-05-07T22:38:41.950Z,0.57
2023-05-07T22:41:29.460Z,0.80
2023-05-07T22:44:03.904Z,1.07
2023-05-07T22:46:37.808Z,1.10
2023-05-07T22:49:11.209Z,0.50
2023-05-07T22:51:49.770Z,0.60
2023-05-07T22:54:25.250Z,0.93
2023-05-07T22:56:57.121Z,0.68
2023-05-07T22:59:27.415Z,0.55
2023-05-07T23:02:08.260Z,0.67
2023-05-07T23:04:42.029Z,0.67
2023-05-07T23:10:03.169Z,0.60
2023-05-07T23:12:32.244Z,0.67
2023-05-07T23:15:00.616Z,0.63
2023-05-07T23:17:37.960Z,0.57
2023-05-07T23:20:10.045Z,0.60
2023-05-07T23:22:52.484Z,0.40
2023-05-07T23:25:27.031Z,0.33
2023-05-07T23:28:05.652Z,0.50
2023-05-07T23:30:36.475Z,0.67
2023-05-07T23:33:11.352Z,0.60
2023-05-07T23:35:49.226Z,0.70
2023-05-07T23:38:19.936Z,0.60
2023-05-07T23:40:57.155Z,0.57
2023-05-07T23:43:31.468Z,0.50
2023-05-07T23:46:02.829Z,0.80
2023-05-07T23:48:35.628Z,0.70
2023-05-07T23:51:05.717Z,0.73
2023-05-07T23:53:37.022Z,0.70
2023-05-07T23:56:07.904Z,0.60
2023-05-07T23:58:47.479Z,0.65
